createdAt,value
2022-11-17T00:01:21.822Z,1.70
2022-11-17T00:03:50.350Z,1.50
2022-11-17T00:06:21.911Z,1.40
2022-11-17T00:08:49.238Z,1.40
2022-11-17T00:11:16.660Z,1.50
2022-11-17T00:14:02.999Z,2.00
2022-11-17T00:16:30.350Z,2.10
2022-11-17T00:19:16.382Z,1.90
2022-11-17T00:21:43.699Z,1.60
2022-11-17T00:24:11.098Z,1.40
2022-11-17T00:26:58.370Z,1.30
2022-11-17T00:29:25.743Z,1.30
2022-11-17T00:32:11.946Z,1.40
2022-11-17T00:34:39.423Z,1.50
2022-11-17T00:37:08.384Z,1.70
2022-11-17T00:39:35.958Z,1.90
2022-11-17T00:42:03.351Z,2.00
2022-11-17T00:44:31.191Z,2.00
2022-11-17T00:46:58.555Z,2.00
2022-11-17T00:49:26.358Z,1.90
2022-11-17T00:51:55.463Z,1.90
2022-11-17T00:54:23.047Z,1.90
2022-11-17T00:56:50.527Z,1.80
2022-11-17T00:59:18.057Z,1.90
2022-11-17T01:01:46.331Z,2.00
2022-11-17T01:04:15.157Z,2.10
2022-11-17T01:06:45.464Z,2.20
2022-11-17T01:09:19.492Z,2.20
2022-11-17T01:11:48.929Z,2.20
2022-11-17T01:14:25.247Z,2.10
2022-11-17T01:16:53.558Z,2.00
2022-11-17T01:19:23.188Z,1.90
2022-11-17T01:21:51.173Z,1.90
2022-11-17T01:24:18.872Z,1.80
2022-11-17T01:26:46.702Z,1.80
2022-11-17T01:29:17.153Z,1.80
2022-11-17T01:31:49.150Z,1.70
2022-11-17T01:34:16.645Z,1.80
2022-11-17T01:37:02.883Z,1.90
2022-11-17T01:39:31.524Z,1.90
2022-11-17T01:42:04.046Z,2.00
2022-11-17T01:45:03.876Z,2.00
2022-11-17T01:47:38.536Z,2.10
2022-11-17T01:50:34.347Z,2.10
2022-11-17T01:53:07.369Z,2.00
2022-11-17T01:55:45.192Z,1.90
2022-11-17T01:58:17.777Z,2.10
2022-11-17T02:00:45.633Z,2.10
2022-11-17T02:03:13.568Z,2.10
2022-11-17T02:06:07.838Z,2.00
2022-11-17T02:08:38.846Z,2.10
2022-11-17T02:11:12.130Z,2.10
2022-11-17T02:13:42.765Z,2.10
2022-11-17T02:16:12.830Z,2.10
2022-11-17T02:18:43.909Z,2.10
2022-11-17T02:21:50.506Z,2.10
2022-11-17T02:24:46.097Z,2.20
2022-11-17T02:27:29.157Z,2.20
2022-11-17T02:30:14.940Z,2.20
2022-11-17T02:33:00.868Z,2.30
2022-11-17T02:35:39.616Z,2.40
2022-11-17T02:38:20.480Z,2.40
2022-11-17T02:40:53.920Z,2.50
2022-11-17T02:43:45.431Z,2.50
2022-11-17T02:46:20.587Z,2.50
2022-11-17T02:49:02.025Z,2.60
2022-11-17T02:51:31.092Z,2.50
2022-11-17T02:54:00.112Z,2.50
2022-11-17T02:56:27.890Z,2.60
2022-11-17T02:59:00.342Z,2.60
2022-11-17T03:01:39.786Z,2.60
2022-11-17T03:05:20.524Z,2.70
2022-11-17T03:08:23.072Z,2.80
2022-11-17T03:11:00.940Z,2.80
2022-11-17T03:13:48.379Z,3.00
2022-11-17T03:16:28.354Z,3.20
2022-11-17T03:19:12.143Z,3.20
2022-11-17T03:21:50.823Z,3.00
2022-11-17T03:24:28.080Z,2.80
2022-11-17T03:27:00.473Z,2.90
2022-11-17T03:29:30.294Z,2.80
2022-11-17T03:32:02.158Z,2.90
2022-11-17T03:34:35.524Z,3.10
2022-11-17T03:37:06.504Z,3.30
2022-11-17T03:39:37.584Z,3.40
2022-11-17T03:42:19.817Z,3.30
2022-11-17T03:44:55.477Z,3.40
2022-11-17T03:47:25.801Z,3.40
2022-11-17T03:50:15.156Z,3.20
2022-11-17T03:52:47.389Z,3.20
2022-11-17T03:55:18.381Z,3.20
2022-11-17T03:58:01.070Z,3.30
2022-11-17T04:00:28.572Z,3.30
2022-11-17T04:02:58.673Z,3.30
2022-11-17T04:06:31.324Z,3.40
2022-11-17T04:08:58.725Z,3.40
2022-11-17T04:11:47.045Z,3.40
2022-11-17T04:16:29.065Z,3.40
2022-11-17T04:18:07.853Z,3.40
2022-11-17T04:20:37.985Z,3.40
2022-11-17T04:23:07.481Z,3.40
2022-11-17T04:26:04.090Z,3.40
2022-11-17T04:28:37.133Z,3.40
2022-11-17T04:31:22.888Z,3.40
2022-11-17T04:33:52.837Z,3.50
2022-11-17T04:36:24.441Z,3.40
2022-11-17T04:38:54.421Z,3.50
2022-11-17T04:41:41.918Z,3.60
2022-11-17T04:44:11.978Z,3.60
2022-11-17T04:46:40.673Z,3.60
2022-11-17T04:49:08.502Z,3.60
2022-11-17T04:51:37.258Z,3.60
2022-11-17T04:54:06.814Z,3.60
2022-11-17T04:56:34.226Z,3.60
2022-11-17T04:59:03.618Z,3.70
2022-11-17T05:01:31.771Z,3.80
2022-11-17T05:04:01.483Z,3.90
2022-11-17T05:06:35.627Z,3.80
2022-11-17T05:09:08.417Z,3.80
2022-11-17T05:11:56.847Z,3.90
2022-11-17T05:14:26.395Z,4.00
2022-11-17T05:17:10.586Z,3.90
2022-11-17T05:19:39.969Z,3.90
2022-11-17T05:22:27.740Z,3.90
2022-11-17T05:24:55.786Z,3.90
2022-11-17T05:27:29.470Z,3.90
2022-11-17T05:29:56.928Z,3.90
2022-11-17T05:32:24.627Z,3.90
2022-11-17T05:34:57.088Z,3.90
2022-11-17T05:37:24.643Z,3.90
2022-11-17T05:39:56.346Z,3.80
2022-11-17T05:42:23.894Z,3.80
2022-11-17T05:44:51.458Z,3.70
2022-11-17T05:47:18.931Z,3.80
2022-11-17T05:49:48.961Z,3.70
2022-11-17T05:52:16.534Z,3.70
2022-11-17T05:54:44.100Z,3.60
2022-11-17T05:57:19.816Z,3.60
2022-11-17T05:59:53.034Z,3.60
2022-11-17T06:02:32.085Z,3.60
2022-11-17T06:05:13.257Z,3.70
2022-11-17T06:07:45.953Z,3.70
2022-11-17T06:10:20.187Z,3.70
2022-11-17T06:12:50.170Z,3.70
2022-11-17T06:15:17.770Z,3.70
2022-11-17T06:17:53.557Z,3.60
2022-11-17T06:20:35.030Z,3.70
2022-11-17T06:23:08.662Z,3.70
2022-11-17T06:25:38.007Z,3.90
2022-11-17T06:28:10.874Z,4.20
2022-11-17T06:30:39.938Z,4.40
2022-11-17T06:33:10.488Z,4.50
2022-11-17T06:36:10.663Z,4.50
2022-11-17T06:38:41.715Z,4.60
2022-11-17T06:41:12.365Z,4.70
2022-11-17T06:43:40.211Z,4.70
2022-11-17T06:46:10.487Z,4.70
2022-11-17T06:48:39.963Z,4.70
2022-11-17T06:53:13.951Z,4.80
2022-11-17T06:56:00.112Z,4.80
2022-11-17T07:06:29.363Z,4.70
2022-11-17T07:14:10.756Z,4.70
2022-11-17T07:21:08.904Z,4.70
2022-11-17T07:24:52.850Z,4.90
2022-11-17T07:30:58.764Z,4.90
2022-11-17T07:33:37.219Z,4.90
2022-11-17T07:36:07.278Z,4.90
2022-11-17T07:38:35.963Z,4.90
2022-11-17T07:41:04.691Z,4.90
2022-11-17T07:43:33.933Z,4.90
2022-11-17T07:46:11.383Z,4.90
2022-11-17T07:48:39.780Z,5.00
2022-11-17T07:51:07.613Z,5.10
2022-11-17T07:53:35.599Z,5.10
2022-11-17T07:56:08.356Z,5.20
2022-11-17T07:58:45.579Z,5.20
2022-11-17T08:01:17.975Z,5.20
2022-11-17T08:04:00.087Z,5.20
2022-11-17T08:06:35.867Z,5.20
2022-11-17T08:09:07.308Z,5.20
2022-11-17T08:11:43.117Z,5.30
2022-11-17T08:14:21.343Z,5.40
2022-11-17T08:17:04.955Z,5.50
2022-11-17T08:19:46.824Z,5.60
2022-11-17T08:22:41.777Z,5.70
2022-11-17T08:25:26.967Z,5.70
2022-11-17T08:28:00.783Z,5.70
2022-11-17T08:30:35.004Z,5.70
2022-11-17T08:33:06.184Z,5.70
2022-11-17T08:35:51.011Z,5.70
2022-11-17T08:38:21.839Z,5.60
2022-11-17T08:41:10.051Z,5.60
2022-11-17T08:43:46.223Z,5.50
2022-11-17T08:46:16.112Z,5.70
2022-11-17T08:48:43.576Z,5.60
2022-11-17T08:51:13.854Z,5.60
2022-11-17T08:53:56.902Z,5.60
2022-11-17T08:56:29.526Z,5.60
2022-11-17T08:58:57.039Z,5.60
2022-11-17T09:01:27.612Z,5.70
2022-11-17T09:04:56.152Z,5.70
2022-11-17T09:07:23.755Z,5.90
2022-11-17T09:09:52.940Z,6.10
2022-11-17T09:12:20.371Z,6.30
2022-11-17T09:15:18.908Z,6.40
2022-11-17T09:18:07.085Z,6.80
2022-11-17T09:20:46.098Z,7.10
2022-11-17T09:23:30.772Z,7.30
2022-11-17T09:26:09.901Z,7.40
2022-11-17T09:29:04.548Z,7.70
2022-11-17T09:32:07.524Z,7.60
2022-11-17T09:35:21.366Z,7.80
2022-11-17T09:38:28.457Z,7.90
2022-11-17T09:41:43.173Z,7.90
2022-11-17T09:44:23.512Z,8.00
2022-11-17T09:47:34.991Z,8.10
2022-11-17T09:50:35.140Z,8.20
2022-11-17T09:53:16.074Z,8.30
2022-11-17T09:55:53.998Z,8.50
2022-11-17T09:59:00.833Z,8.50
2022-11-17T10:01:57.916Z,8.70
2022-11-17T10:16:14.460Z,8.80
2022-11-17T10:40:32.374Z,9.40
2022-11-17T10:43:24.975Z,9.60
2022-11-17T10:46:04.012Z,9.50
2022-11-17T10:48:35.974Z,9.30
2022-11-17T10:51:22.544Z,9.30
2022-11-17T10:54:27.713Z,9.20
2022-11-17T10:56:59.107Z,9.20
2022-11-17T10:59:33.409Z,9.20
2022-11-17T11:02:36.135Z,9.20
2022-11-17T11:05:12.719Z,9.20
2022-11-17T11:07:45.927Z,9.30
2022-11-17T11:10:34.643Z,9.20
2022-11-17T11:13:20.688Z,9.20
2022-11-17T11:19:04.171Z,9.40
2022-11-17T11:22:02.736Z,9.50
2022-11-17T11:25:47.631Z,9.60
2022-11-17T11:29:10.859Z,9.80
2022-11-17T11:31:46.831Z,10.10
2022-11-17T11:35:13.244Z,10.20
2022-11-17T11:38:35.978Z,10.20
2022-11-17T11:44:30.744Z,9.90
2022-11-17T11:47:23.932Z,10.00
2022-11-17T11:50:21.434Z,10.10
2022-11-17T11:53:51.969Z,10.20
2022-11-17T11:56:58.625Z,10.10
2022-11-17T12:00:16.204Z,10.00
2022-11-17T12:03:07.322Z,9.90
2022-11-17T12:10:53.652Z,9.70
2022-11-17T12:14:07.924Z,9.80
2022-11-17T12:16:44.453Z,9.70
2022-11-17T12:31:41.618Z,9.90
2022-11-17T12:49:18.134Z,9.60
2022-11-17T13:04:58.490Z,9.50
2022-11-17T13:31:41.914Z,9.80
2022-11-17T13:35:13.791Z,9.80
2022-11-17T14:13:21.489Z,9.30
2022-11-17T14:17:43.073Z,9.30
2022-11-17T14:20:25.763Z,9.10
2022-11-17T14:23:11.163Z,8.90
2022-11-17T14:26:17.546Z,8.90
2022-11-17T15:49:33.373Z,6.20
2022-11-17T15:59:53.202Z,6.00
2022-11-17T16:02:23.606Z,6.10
2022-11-17T16:22:55.139Z,5.50
2022-11-17T16:47:57.835Z,5.60
2022-11-17T17:04:42.174Z,5.20
2022-11-17T17:19:52.132Z,5.60
2022-11-17T17:26:05.549Z,4.80
2022-11-17T17:28:35.076Z,4.70
2022-11-17T17:31:08.358Z,4.70
2022-11-17T17:33:57.769Z,4.70
2022-11-17T17:36:32.605Z,4.90
2022-11-17T17:39:05.986Z,5.30
2022-11-17T17:41:40.254Z,5.50
2022-11-17T17:44:08.508Z,5.30
2022-11-17T17:46:38.623Z,5.20
2022-11-17T17:49:16.428Z,5.20
2022-11-17T17:51:55.086Z,5.20
2022-11-17T17:54:33.235Z,5.40
2022-11-17T17:57:01.577Z,5.20
2022-11-17T17:59:29.801Z,5.10
2022-11-17T18:01:57.453Z,5.20
2022-11-17T18:05:53.733Z,5.30
2022-11-17T18:08:56.322Z,5.40
2022-11-17T18:11:28.326Z,5.40
2022-11-17T18:13:56.509Z,5.30
2022-11-17T18:16:38.059Z,5.20
2022-11-17T18:19:09.019Z,5.10
2022-11-17T18:21:36.792Z,5.20
2022-11-17T18:24:04.422Z,5.30
2022-11-17T18:26:33.877Z,5.20
2022-11-17T18:29:04.875Z,5.00
2022-11-17T18:31:36.652Z,4.90
2022-11-17T18:34:20.940Z,4.90
2022-11-17T18:36:49.531Z,4.90
2022-11-17T18:39:17.723Z,4.70
2022-11-17T18:41:47.179Z,4.60
2022-11-17T18:44:16.978Z,4.60
2022-11-17T18:46:44.503Z,4.70
2022-11-17T18:49:12.054Z,4.70
2022-11-17T18:51:40.914Z,4.40
2022-11-17T18:54:11.670Z,4.20
2022-11-17T18:56:39.902Z,4.40
2022-11-17T18:59:11.589Z,4.80
2022-11-17T19:01:41.091Z,5.00
2022-11-17T19:04:13.878Z,5.10
2022-11-17T19:06:41.574Z,4.80
2022-11-17T19:09:09.084Z,4.60
2022-11-17T19:11:36.934Z,4.60
2022-11-17T19:14:07.618Z,4.80
2022-11-17T19:16:44.098Z,4.60
2022-11-17T19:19:14.033Z,4.40
2022-11-17T19:21:42.563Z,4.30
2022-11-17T19:24:10.071Z,4.50
2022-11-17T19:26:37.628Z,4.60
2022-11-17T19:29:14.284Z,4.70
2022-11-17T19:31:46.336Z,4.90
2022-11-17T19:34:54.157Z,5.20
2022-11-17T19:37:22.196Z,4.80
2022-11-17T19:39:49.572Z,4.70
2022-11-17T19:42:17.063Z,4.70
2022-11-17T19:44:45.597Z,4.70
2022-11-17T19:47:13.028Z,4.50
2022-11-17T19:49:40.433Z,4.60
2022-11-17T19:52:08.082Z,4.90
2022-11-17T19:54:35.673Z,5.00
2022-11-17T19:57:03.148Z,5.10
2022-11-17T19:59:30.572Z,5.10
2022-11-17T20:01:58.016Z,5.20
2022-11-17T20:04:25.592Z,5.10
2022-11-17T20:06:53.085Z,5.00
2022-11-17T20:09:20.759Z,5.00
2022-11-17T20:11:49.460Z,5.00
2022-11-17T20:14:17.061Z,5.10
2022-11-17T20:16:44.492Z,5.30
2022-11-17T20:19:13.857Z,5.60
2022-11-17T20:21:41.697Z,5.70
2022-11-17T20:24:10.525Z,5.60
2022-11-17T20:26:45.062Z,5.70
2022-11-17T20:29:12.485Z,5.70
2022-11-17T20:31:39.849Z,5.60
2022-11-17T20:34:14.217Z,5.50
2022-11-17T20:36:41.736Z,5.50
2022-11-17T20:39:09.193Z,5.50
2022-11-17T20:41:36.645Z,5.60
2022-11-17T20:44:04.271Z,5.60
2022-11-17T20:46:31.913Z,5.70
2022-11-17T20:48:59.394Z,5.70
2022-11-17T20:51:27.038Z,5.80
2022-11-17T20:53:54.583Z,6.00
2022-11-17T20:56:22.168Z,6.00
2022-11-17T20:58:49.838Z,6.10
2022-11-17T21:01:20.170Z,6.10
2022-11-17T21:03:48.108Z,6.10
2022-11-17T21:06:16.334Z,6.20
2022-11-17T21:08:44.676Z,6.20
2022-11-17T21:11:34.705Z,6.20
2022-11-17T21:14:03.961Z,6.20
2022-11-17T21:16:31.549Z,6.10
2022-11-17T21:18:59.127Z,6.20
2022-11-17T21:21:26.755Z,6.20
2022-11-17T21:23:54.911Z,6.30
2022-11-17T21:26:23.321Z,6.00
2022-11-17T21:28:54.315Z,5.90
2022-11-17T21:31:24.614Z,5.90
2022-11-17T21:34:30.907Z,5.80
2022-11-17T21:36:58.363Z,5.70
2022-11-17T21:39:25.724Z,5.80
2022-11-17T21:41:53.231Z,5.80
2022-11-17T21:44:20.806Z,5.80
2022-11-17T21:46:48.315Z,5.80
2022-11-17T21:49:16.319Z,5.80
2022-11-17T21:51:44.950Z,5.80
2022-11-17T21:54:12.407Z,5.80
2022-11-17T21:56:40.651Z,5.80
2022-11-17T21:59:13.040Z,5.90
2022-11-17T22:01:40.684Z,6.00
2022-11-17T22:04:12.968Z,6.00
2022-11-17T22:06:40.426Z,6.10
2022-11-17T22:09:08.103Z,6.00
2022-11-17T22:11:35.993Z,5.80
2022-11-17T22:14:17.912Z,5.90
2022-11-17T22:16:53.723Z,5.80
2022-11-17T22:19:22.784Z,5.80
2022-11-17T22:21:52.891Z,5.60
2022-11-17T22:24:21.085Z,5.70
2022-11-17T22:26:48.782Z,5.70
2022-11-17T22:29:19.921Z,5.70
2022-11-17T22:31:48.985Z,5.70
2022-11-17T22:34:17.384Z,5.90
2022-11-17T22:36:44.845Z,5.90
2022-11-17T22:39:12.576Z,6.00
2022-11-17T22:41:44.741Z,6.00
2022-11-17T22:44:16.469Z,6.20
2022-11-17T22:46:44.157Z,6.50
2022-11-17T22:49:12.513Z,6.80
2022-11-17T22:51:58.759Z,6.90
2022-11-17T22:54:26.253Z,7.10
2022-11-17T22:56:53.773Z,7.30
2022-11-17T22:59:23.426Z,7.40
2022-11-17T23:01:50.850Z,7.40
2022-11-17T23:04:22.971Z,7.40
2022-11-17T23:06:53.494Z,7.20
2022-11-17T23:09:21.845Z,7.10
2022-11-17T23:11:53.020Z,7.10
2022-11-17T23:14:20.637Z,7.30
2022-11-17T23:16:48.122Z,7.30
2022-11-17T23:19:16.239Z,7.30
2022-11-17T23:21:43.763Z,7.30
2022-11-17T23:24:12.809Z,7.30
2022-11-17T23:26:41.749Z,7.30
2022-11-17T23:29:09.413Z,7.10
2022-11-17T23:31:36.723Z,7.20
2022-11-17T23:34:12.009Z,7.20
2022-11-17T23:36:39.639Z,7.10
2022-11-17T23:39:07.049Z,7.10
2022-11-17T23:41:34.414Z,7.10
2022-11-17T23:44:01.837Z,7.10
2022-11-17T23:46:29.186Z,7.10
2022-11-17T23:48:57.119Z,7.10
2022-11-17T23:51:26.282Z,7.10
2022-11-17T23:53:53.812Z,7.10
2022-11-17T23:56:21.508Z,7.10
2022-11-17T23:58:49.786Z,7.00
